createdAt,value
2023-03-07T00:00:38.410Z,26.60
2023-03-07T00:01:51.077Z,26.70
2023-03-07T00:02:54.576Z,29.20
2023-03-07T00:03:58.633Z,31.20
2023-03-07T00:05:01.928Z,29.00
2023-03-07T00:06:09.441Z,25.00
2023-03-07T00:07:15.091Z,24.60
2023-03-07T00:08:21.288Z,28.10
2023-03-07T00:09:24.207Z,24.50
2023-03-07T00:10:27.506Z,26.00
2023-03-07T00:11:31.074Z,26.90
2023-03-07T00:12:33.897Z,23.30
2023-03-07T00:13:38.292Z,25.30
2023-03-07T00:14:42.186Z,25.00
2023-03-07T00:15:46.296Z,25.60
2023-03-07T00:16:51.677Z,28.90
2023-03-07T00:17:55.088Z,28.10
2023-03-07T00:18:57.957Z,25.40
2023-03-07T00:20:00.851Z,27.10
2023-03-07T00:21:08.272Z,28.60
2023-03-07T00:22:14.430Z,26.30
2023-03-07T00:23:18.030Z,25.30
2023-03-07T00:24:20.981Z,28.20
2023-03-07T00:25:23.892Z,25.00
2023-03-07T00:26:28.021Z,26.40
2023-03-07T00:27:34.891Z,25.70
2023-03-07T00:28:37.791Z,24.20
2023-03-07T00:29:40.783Z,25.90
2023-03-07T00:30:43.881Z,22.40
2023-03-07T00:31:49.730Z,28.10
2023-03-07T00:32:52.599Z,27.00
2023-03-07T00:33:55.491Z,26.50
2023-03-07T00:35:00.146Z,25.00
2023-03-07T00:36:07.643Z,26.70
2023-03-07T00:37:12.247Z,24.80
2023-03-07T00:38:17.655Z,26.60
2023-03-07T00:39:20.669Z,26.00
2023-03-07T00:40:23.556Z,25.10
2023-03-07T00:41:29.060Z,27.40
2023-03-07T00:42:33.642Z,29.90
2023-03-07T00:43:38.120Z,28.30
2023-03-07T00:44:41.038Z,25.00
2023-03-07T00:45:43.975Z,27.30
2023-03-07T00:46:47.341Z,30.10
2023-03-07T00:47:51.556Z,28.70
2023-03-07T00:48:55.613Z,27.40
2023-03-07T00:49:58.482Z,27.60
2023-03-07T00:51:01.718Z,33.40
2023-03-07T00:52:05.288Z,30.90
2023-03-07T00:53:09.143Z,29.30
2023-03-07T00:54:12.527Z,24.50
2023-03-07T00:55:16.707Z,26.30
2023-03-07T00:56:25.960Z,28.80
2023-03-07T00:57:32.705Z,26.60
2023-03-07T00:58:38.308Z,23.70
2023-03-07T00:59:41.127Z,24.90
2023-03-07T01:00:48.553Z,22.50
2023-03-07T01:01:52.356Z,25.10
2023-03-07T01:03:02.258Z,24.20
2023-03-07T01:04:08.251Z,24.60
2023-03-07T01:05:15.603Z,23.50
2023-03-07T01:06:20.835Z,20.90
2023-03-07T01:07:24.997Z,19.90
2023-03-07T01:08:28.894Z,21.70
2023-03-07T01:09:35.054Z,20.30
2023-03-07T01:10:38.533Z,24.00
2023-03-07T01:11:41.759Z,18.30
2023-03-07T01:12:45.242Z,23.30
2023-03-07T01:13:48.547Z,19.30
2023-03-07T01:14:52.349Z,20.50
2023-03-07T01:15:55.295Z,20.50
2023-03-07T01:16:58.193Z,18.60
2023-03-07T01:18:03.661Z,20.20
2023-03-07T01:19:08.374Z,21.50
2023-03-07T01:20:12.015Z,21.70
2023-03-07T01:21:21.539Z,22.00
2023-03-07T01:22:25.314Z,23.50
2023-03-07T01:23:28.329Z,21.90
2023-03-07T01:24:31.586Z,21.40
2023-03-07T01:25:43.139Z,22.70
2023-03-07T01:26:46.528Z,20.60
2023-03-07T01:27:52.465Z,21.00
2023-03-07T01:28:58.459Z,21.10
2023-03-07T01:30:01.430Z,22.10
2023-03-07T01:31:04.661Z,20.50
2023-03-07T01:32:07.751Z,19.30
2023-03-07T01:33:11.108Z,18.90
2023-03-07T01:34:14.266Z,20.30
2023-03-07T01:35:17.431Z,19.80
2023-03-07T01:36:25.465Z,21.80
2023-03-07T01:37:28.880Z,20.00
2023-03-07T01:38:34.134Z,22.50
2023-03-07T01:39:39.099Z,17.80
2023-03-07T01:40:45.226Z,22.60
2023-03-07T01:41:49.026Z,22.80
2023-03-07T01:42:53.527Z,21.10
2023-03-07T01:44:05.364Z,21.70
2023-03-07T01:45:12.194Z,22.80
2023-03-07T01:46:18.625Z,22.00
2023-03-07T01:47:28.024Z,26.40
2023-03-07T01:48:30.949Z,19.80
2023-03-07T01:49:41.041Z,25.40
2023-03-07T01:50:44.599Z,25.50
2023-03-07T01:51:52.422Z,22.10
2023-03-07T01:53:00.561Z,24.80
2023-03-07T01:54:06.344Z,22.10
2023-03-07T01:55:12.366Z,23.20
2023-03-07T01:56:16.401Z,24.20
2023-03-07T01:57:22.037Z,26.20
2023-03-07T01:58:25.500Z,21.60
2023-03-07T01:59:32.785Z,24.90
2023-03-07T02:00:38.541Z,23.00
2023-03-07T02:01:41.515Z,25.00
2023-03-07T02:02:47.895Z,23.50
2023-03-07T02:03:55.316Z,26.10
2023-03-07T02:05:14.565Z,25.00
2023-03-07T02:06:18.674Z,24.60
2023-03-07T02:07:24.920Z,24.50
2023-03-07T02:08:30.621Z,23.00
2023-03-07T02:09:35.402Z,28.00
2023-03-07T02:10:40.509Z,22.10
2023-03-07T02:11:45.356Z,21.70
2023-03-07T02:12:51.959Z,25.70
2023-03-07T02:13:55.017Z,25.80
2023-03-07T02:14:58.277Z,25.40
2023-03-07T02:16:02.681Z,24.30
2023-03-07T02:17:05.975Z,23.50
2023-03-07T02:18:13.177Z,26.90
2023-03-07T02:19:40.603Z,27.50
2023-03-07T02:21:01.726Z,24.50
2023-03-07T02:22:12.396Z,27.20
2023-03-07T02:24:37.937Z,25.60
2023-03-07T02:26:02.499Z,23.40
2023-03-07T02:27:06.218Z,25.20
2023-03-07T02:28:13.278Z,26.50
2023-03-07T02:29:17.131Z,23.80
2023-03-07T02:30:21.805Z,26.30
2023-03-07T02:31:42.599Z,22.10
2023-03-07T02:32:45.805Z,23.70
2023-03-07T02:33:49.913Z,24.60
2023-03-07T02:34:53.198Z,26.00
2023-03-07T02:36:03.036Z,26.40
2023-03-07T02:37:11.289Z,25.20
2023-03-07T02:38:14.668Z,27.70
2023-03-07T02:39:21.572Z,23.90
2023-03-07T02:40:29.580Z,27.10
2023-03-07T02:41:34.231Z,24.70
2023-03-07T02:42:42.763Z,24.10
2023-03-07T02:43:48.264Z,27.40
2023-03-07T02:45:02.028Z,27.90
2023-03-07T02:46:07.171Z,23.70
2023-03-07T02:47:10.144Z,26.40
2023-03-07T02:48:14.030Z,24.90
2023-03-07T02:49:18.417Z,21.80
2023-03-07T02:50:21.515Z,23.00
2023-03-07T02:51:27.100Z,22.30
2023-03-07T02:52:30.151Z,21.40
2023-03-07T02:53:33.459Z,21.50
2023-03-07T02:54:36.637Z,22.90
2023-03-07T02:55:39.453Z,23.90
2023-03-07T02:56:42.546Z,26.20
2023-03-07T02:57:45.468Z,25.00
2023-03-07T02:58:48.337Z,24.00
2023-03-07T02:59:51.506Z,22.90
2023-03-07T03:00:54.579Z,26.50
2023-03-07T03:01:58.369Z,22.50
2023-03-07T03:03:01.295Z,20.20
2023-03-07T03:04:04.342Z,23.10
2023-03-07T03:05:10.284Z,26.20
2023-03-07T03:06:13.962Z,23.40
2023-03-07T03:07:16.913Z,24.10
2023-03-07T03:08:19.876Z,22.90
2023-03-07T03:09:22.837Z,25.80
2023-03-07T03:10:25.937Z,24.70
2023-03-07T03:11:29.244Z,23.00
2023-03-07T03:12:32.529Z,20.40
2023-03-07T03:13:37.681Z,24.30
2023-03-07T03:14:42.613Z,21.80
2023-03-07T03:15:45.780Z,23.20
2023-03-07T03:16:49.587Z,23.00
2023-03-07T03:17:55.109Z,21.80
2023-03-07T03:18:58.537Z,22.30
2023-03-07T03:20:01.515Z,23.80
2023-03-07T03:21:11.469Z,24.20
2023-03-07T03:22:14.943Z,21.80
2023-03-07T03:23:20.522Z,24.50
2023-03-07T03:24:23.501Z,23.60
2023-03-07T03:25:27.276Z,20.90
2023-03-07T03:26:30.444Z,24.00
2023-03-07T03:27:33.519Z,21.40
2023-03-07T03:28:37.994Z,21.00
2023-03-07T03:29:41.133Z,20.10
2023-03-07T03:30:44.126Z,24.60
2023-03-07T03:31:47.208Z,21.00
2023-03-07T03:32:50.136Z,21.60
2023-03-07T03:33:53.455Z,24.30
2023-03-07T03:34:56.704Z,26.80
2023-03-07T03:36:01.319Z,23.10
2023-03-07T03:37:04.607Z,32.60
2023-03-07T03:38:08.446Z,25.50
2023-03-07T03:39:11.458Z,27.70
2023-03-07T03:40:19.738Z,30.40
2023-03-07T03:41:23.501Z,32.10
2023-03-07T03:42:26.644Z,33.80
2023-03-07T03:43:29.699Z,41.20
2023-03-07T03:44:32.638Z,42.10
2023-03-07T03:45:35.590Z,41.60
2023-03-07T03:46:38.510Z,40.60
2023-03-07T03:47:41.821Z,40.90
2023-03-07T03:48:45.332Z,36.00
2023-03-07T03:49:48.499Z,36.70
2023-03-07T03:50:51.512Z,36.00
2023-03-07T03:51:54.474Z,37.90
2023-03-07T03:52:57.715Z,42.40
2023-03-07T03:54:00.762Z,41.20
2023-03-07T03:55:05.246Z,42.10
2023-03-07T03:56:13.704Z,42.50
2023-03-07T03:57:20.624Z,44.40
2023-03-07T03:58:23.696Z,63.00
2023-03-07T03:59:26.752Z,59.80
2023-03-07T04:00:30.702Z,64.80
2023-03-07T04:01:33.633Z,62.20
2023-03-07T04:02:36.784Z,59.60
2023-03-07T04:03:43.863Z,60.00
2023-03-07T04:04:46.800Z,57.70
2023-03-07T04:05:49.621Z,58.00
2023-03-07T04:06:53.027Z,56.10
2023-03-07T04:07:56.022Z,49.70
2023-03-07T04:08:59.547Z,51.00
2023-03-07T04:10:02.455Z,50.70
2023-03-07T04:11:06.425Z,45.70
2023-03-07T04:12:09.364Z,41.40
2023-03-07T04:13:12.304Z,40.60
2023-03-07T04:14:15.479Z,39.10
2023-03-07T04:15:18.668Z,39.90
2023-03-07T04:16:24.579Z,37.40
2023-03-07T04:17:27.434Z,33.70
2023-03-07T04:18:30.533Z,31.50
2023-03-07T04:19:34.145Z,28.90
2023-03-07T04:20:37.433Z,31.90
2023-03-07T04:21:41.035Z,31.40
2023-03-07T04:22:44.930Z,31.50
2023-03-07T04:23:50.281Z,31.70
2023-03-07T04:24:53.384Z,34.20
2023-03-07T04:25:58.602Z,33.30
2023-03-07T04:27:02.592Z,34.70
2023-03-07T04:28:05.654Z,31.70
2023-03-07T04:29:10.074Z,32.00
2023-03-07T04:30:17.646Z,33.60
2023-03-07T04:31:23.834Z,32.80
2023-03-07T04:32:27.201Z,27.50
2023-03-07T04:33:30.352Z,26.90
2023-03-07T04:34:33.251Z,27.30
2023-03-07T04:35:36.562Z,26.40
2023-03-07T04:36:39.706Z,27.00
2023-03-07T04:37:42.588Z,27.10
2023-03-07T04:38:47.405Z,27.20
2023-03-07T04:39:50.515Z,31.30
2023-03-07T04:40:53.716Z,30.80
2023-03-07T04:41:56.645Z,30.60
2023-03-07T04:43:00.530Z,31.00
2023-03-07T04:44:03.555Z,28.70
2023-03-07T04:45:07.268Z,28.60
2023-03-07T04:46:12.887Z,28.40
2023-03-07T04:47:15.834Z,28.70
2023-03-07T04:48:19.145Z,30.50
2023-03-07T04:49:21.998Z,29.10
2023-03-07T04:50:25.275Z,29.50
2023-03-07T04:51:28.392Z,31.80
2023-03-07T04:52:31.661Z,25.20
2023-03-07T04:53:34.900Z,26.30
2023-03-07T04:54:40.853Z,26.60
2023-03-07T04:55:44.840Z,24.30
2023-03-07T04:56:48.009Z,27.90
2023-03-07T04:57:52.160Z,28.30
2023-03-07T04:58:55.191Z,24.80
2023-03-07T04:59:58.096Z,25.00
2023-03-07T05:01:02.684Z,27.20
2023-03-07T05:02:12.706Z,23.70
2023-03-07T05:03:17.036Z,27.00
2023-03-07T05:04:19.957Z,23.70
2023-03-07T05:05:22.911Z,24.40
2023-03-07T05:06:25.960Z,21.40
2023-03-07T05:07:30.092Z,23.10
2023-03-07T05:08:33.083Z,24.20
2023-03-07T05:09:36.318Z,21.50
2023-03-07T05:10:39.882Z,20.80
2023-03-07T05:11:42.831Z,24.40
2023-03-07T05:12:45.930Z,24.30
2023-03-07T05:13:49.032Z,22.70
2023-03-07T05:14:54.903Z,23.80
2023-03-07T05:15:59.288Z,20.10
2023-03-07T05:17:03.256Z,23.50
2023-03-07T05:18:07.209Z,25.20
2023-03-07T05:19:10.734Z,24.70
2023-03-07T05:20:14.227Z,23.40
2023-03-07T05:21:17.848Z,25.20
2023-03-07T05:22:21.094Z,23.00
2023-03-07T05:23:25.099Z,23.40
2023-03-07T05:24:29.273Z,24.60
2023-03-07T05:25:33.135Z,22.30
2023-03-07T05:26:36.215Z,22.90
2023-03-07T05:27:39.130Z,26.10
2023-03-07T05:28:42.234Z,22.60
2023-03-07T05:29:45.275Z,22.60
2023-03-07T05:30:48.304Z,24.60
2023-03-07T05:31:51.296Z,21.50
2023-03-07T05:32:54.474Z,23.00
2023-03-07T05:33:57.672Z,21.80
2023-03-07T05:35:01.021Z,23.50
2023-03-07T05:36:04.268Z,24.00
2023-03-07T05:37:08.206Z,24.80
2023-03-07T05:38:11.480Z,23.50
2023-03-07T05:39:16.073Z,22.60
2023-03-07T05:40:19.489Z,21.60
2023-03-07T05:41:23.779Z,24.00
2023-03-07T05:42:26.636Z,24.90
2023-03-07T05:43:29.512Z,25.20
2023-03-07T05:44:34.239Z,23.60
2023-03-07T05:45:38.165Z,26.80
2023-03-07T05:46:41.457Z,26.70
2023-03-07T05:47:44.934Z,28.40
2023-03-07T05:48:49.155Z,26.10
2023-03-07T05:49:53.525Z,22.90
2023-03-07T05:51:00.245Z,23.00
2023-03-07T05:52:03.785Z,26.40
2023-03-07T05:53:06.672Z,25.20
2023-03-07T05:54:09.889Z,25.40
2023-03-07T05:55:12.867Z,24.70
2023-03-07T05:56:15.869Z,24.30
2023-03-07T05:57:18.782Z,21.50
2023-03-07T05:58:21.648Z,26.20
2023-03-07T05:59:25.135Z,25.10
2023-03-07T06:00:28.641Z,22.30
2023-03-07T06:01:35.009Z,26.20
2023-03-07T06:02:38.345Z,25.60
2023-03-07T06:03:43.152Z,23.30
2023-03-07T06:04:47.112Z,27.30
2023-03-07T06:05:50.603Z,23.10
2023-03-07T06:06:53.546Z,22.00
2023-03-07T06:07:56.696Z,24.30
2023-03-07T06:08:59.881Z,26.60
2023-03-07T06:10:03.489Z,20.50
2023-03-07T06:11:06.478Z,23.20
2023-03-07T06:12:11.004Z,19.80
2023-03-07T06:13:20.043Z,21.70
2023-03-07T06:14:23.042Z,23.80
2023-03-07T06:15:26.201Z,26.00
2023-03-07T06:16:34.250Z,23.80
2023-03-07T06:17:38.245Z,23.00
2023-03-07T06:18:42.367Z,23.70
2023-03-07T06:19:45.345Z,25.60
2023-03-07T06:20:59.093Z,24.60
2023-03-07T06:22:03.079Z,24.30
2023-03-07T06:23:06.936Z,23.20
2023-03-07T06:24:10.080Z,26.00
2023-03-07T06:25:15.367Z,23.80
2023-03-07T06:26:18.468Z,25.70
2023-03-07T06:27:23.674Z,23.50
2023-03-07T06:28:27.808Z,25.80
2023-03-07T06:29:30.871Z,25.00
2023-03-07T06:30:34.182Z,21.40
2023-03-07T06:31:37.184Z,22.20
2023-03-07T06:32:40.487Z,23.20
2023-03-07T06:33:44.310Z,21.00
2023-03-07T06:34:50.395Z,23.90
2023-03-07T06:35:53.397Z,20.50
2023-03-07T06:36:56.378Z,23.30
2023-03-07T06:38:00.587Z,24.40
2023-03-07T06:39:04.134Z,23.50
2023-03-07T06:40:09.432Z,20.40
2023-03-07T06:41:12.566Z,21.10
2023-03-07T06:42:16.278Z,21.50
2023-03-07T06:43:19.221Z,22.00
2023-03-07T06:44:22.087Z,25.50
2023-03-07T06:45:26.020Z,21.60
2023-03-07T06:46:28.937Z,23.30
2023-03-07T06:47:32.218Z,23.70
2023-03-07T06:48:35.621Z,20.80
2023-03-07T06:49:39.514Z,22.30
2023-03-07T06:50:42.555Z,25.60
2023-03-07T06:51:45.510Z,22.90
2023-03-07T06:52:49.976Z,26.00
2023-03-07T06:53:53.181Z,23.30
2023-03-07T06:54:56.020Z,22.20
2023-03-07T06:55:59.459Z,23.20
2023-03-07T06:57:02.930Z,22.60
2023-03-07T06:58:05.789Z,23.20
2023-03-07T06:59:08.648Z,25.70
2023-03-07T07:00:13.028Z,27.30
2023-03-07T07:01:18.472Z,28.00
2023-03-07T07:02:22.562Z,24.90
2023-03-07T07:03:26.022Z,21.80
2023-03-07T07:04:30.084Z,23.90
2023-03-07T07:05:32.998Z,24.70
2023-03-07T07:06:35.848Z,23.10
2023-03-07T07:07:38.820Z,24.80
2023-03-07T07:08:41.785Z,25.20
2023-03-07T07:09:45.076Z,27.40
2023-03-07T07:10:48.013Z,23.70
2023-03-07T07:11:51.358Z,23.80
2023-03-07T07:12:56.730Z,25.50
2023-03-07T07:13:59.857Z,27.10
2023-03-07T07:15:05.610Z,27.60
2023-03-07T07:16:09.615Z,24.20
2023-03-07T07:17:15.154Z,26.50
2023-03-07T07:18:18.762Z,23.40
2023-03-07T07:19:22.224Z,25.30
2023-03-07T07:20:25.210Z,28.90
2023-03-07T07:21:28.481Z,21.50
2023-03-07T07:22:32.432Z,22.10
2023-03-07T07:23:35.548Z,21.80
2023-03-07T07:24:39.971Z,23.70
2023-03-07T07:25:43.262Z,27.20
2023-03-07T07:26:46.078Z,28.30
2023-03-07T07:27:48.942Z,28.40
2023-03-07T07:28:52.432Z,26.90
2023-03-07T07:29:55.517Z,28.30
2023-03-07T07:30:58.476Z,31.00
2023-03-07T07:32:02.077Z,30.40
2023-03-07T07:33:05.277Z,28.90
2023-03-07T07:34:08.288Z,28.00
2023-03-07T07:35:11.168Z,27.80
2023-03-07T07:36:14.649Z,26.90
2023-03-07T07:37:17.554Z,30.60
2023-03-07T07:38:20.457Z,28.70
2023-03-07T07:39:24.531Z,28.40
2023-03-07T07:40:28.476Z,27.70
2023-03-07T07:41:33.424Z,28.10
2023-03-07T07:42:36.491Z,24.90
2023-03-07T07:43:50.594Z,26.90
2023-03-07T07:44:57.979Z,28.20
2023-03-07T07:46:06.208Z,25.10
2023-03-07T07:47:09.740Z,24.60
2023-03-07T07:48:13.127Z,24.10
2023-03-07T07:49:17.723Z,24.20
2023-03-07T07:50:22.655Z,24.80
2023-03-07T07:51:25.613Z,21.30
2023-03-07T07:52:28.490Z,23.00
2023-03-07T07:53:31.893Z,23.50
2023-03-07T07:54:34.770Z,24.00
2023-03-07T07:55:38.302Z,23.40
2023-03-07T07:56:41.326Z,20.20
2023-03-07T07:57:44.555Z,21.10
2023-03-07T07:58:48.103Z,24.70
2023-03-07T07:59:51.396Z,22.30
2023-03-07T08:00:54.313Z,22.00
2023-03-07T08:01:57.255Z,21.20
2023-03-07T08:03:00.640Z,23.20
2023-03-07T08:04:03.945Z,23.30
2023-03-07T08:05:10.165Z,22.00
2023-03-07T08:06:13.764Z,22.90
2023-03-07T08:07:16.642Z,20.90
2023-03-07T08:08:20.040Z,20.90
2023-03-07T08:09:23.100Z,19.90
2023-03-07T08:10:26.031Z,22.40
2023-03-07T08:11:28.964Z,22.30
2023-03-07T08:12:31.802Z,25.40
2023-03-07T08:13:34.906Z,22.10
2023-03-07T08:14:38.535Z,24.60
2023-03-07T08:15:42.380Z,21.60
2023-03-07T08:16:45.256Z,20.70
2023-03-07T08:17:50.449Z,20.80
2023-03-07T08:18:58.701Z,21.80
2023-03-07T08:20:08.201Z,24.90
2023-03-07T08:21:11.042Z,24.40
2023-03-07T08:22:14.059Z,27.70
2023-03-07T08:23:16.986Z,26.10
2023-03-07T08:24:24.963Z,27.00
2023-03-07T08:25:32.556Z,24.80
2023-03-07T08:26:35.436Z,26.60
2023-03-07T08:27:38.213Z,28.90
2023-03-07T08:28:41.978Z,28.70
2023-03-07T08:29:49.442Z,26.70
2023-03-07T08:30:52.535Z,26.80
2023-03-07T08:31:55.397Z,26.60
2023-03-07T08:32:58.781Z,25.70
2023-03-07T08:34:01.710Z,24.30
2023-03-07T08:35:05.270Z,26.90
2023-03-07T08:36:08.579Z,24.00
2023-03-07T08:37:11.468Z,25.80
2023-03-07T08:38:14.395Z,23.70
2023-03-07T08:39:17.165Z,25.40
2023-03-07T08:40:20.185Z,23.10
2023-03-07T08:41:23.478Z,21.10
2023-03-07T08:42:26.495Z,23.60
2023-03-07T08:43:30.285Z,25.60
2023-03-07T08:44:33.162Z,25.40
2023-03-07T08:45:40.040Z,24.50
2023-03-07T08:46:43.287Z,21.10
2023-03-07T08:47:46.154Z,23.50
2023-03-07T08:48:49.270Z,21.40
2023-03-07T08:49:52.388Z,19.50
2023-03-07T08:50:55.832Z,21.00
2023-03-07T08:51:58.926Z,21.90
2023-03-07T08:53:01.807Z,21.70
2023-03-07T08:54:04.953Z,22.70
2023-03-07T08:55:08.116Z,24.50
2023-03-07T08:56:15.952Z,26.50
2023-03-07T08:57:19.203Z,24.40
2023-03-07T08:58:22.016Z,22.60
2023-03-07T08:59:24.841Z,21.60
2023-03-07T09:00:27.649Z,25.40
2023-03-07T09:01:30.696Z,23.30
2023-03-07T09:02:33.724Z,22.20
2023-03-07T09:03:37.067Z,23.90
2023-03-07T09:04:40.113Z,24.80
2023-03-07T09:05:43.130Z,26.50
2023-03-07T09:06:46.331Z,24.00
2023-03-07T09:07:49.516Z,23.20
2023-03-07T09:08:52.459Z,27.90
2023-03-07T09:09:55.255Z,23.70
2023-03-07T09:11:03.629Z,25.00
2023-03-07T09:12:07.038Z,23.30
2023-03-07T09:13:10.776Z,26.10
2023-03-07T09:14:13.855Z,25.90
2023-03-07T09:15:17.892Z,26.60
2023-03-07T09:16:21.841Z,26.60
2023-03-07T09:17:25.198Z,28.00
2023-03-07T09:18:30.802Z,32.50
2023-03-07T09:19:35.354Z,29.30
2023-03-07T09:20:38.883Z,29.20
2023-03-07T09:21:41.731Z,27.60
2023-03-07T09:22:45.696Z,28.90
2023-03-07T09:23:49.074Z,27.50
2023-03-07T09:24:51.924Z,28.60
2023-03-07T09:25:55.323Z,30.20
2023-03-07T09:26:58.139Z,31.10
2023-03-07T09:28:01.356Z,27.70
2023-03-07T09:29:04.664Z,27.30
2023-03-07T09:30:08.334Z,26.30
2023-03-07T09:31:13.828Z,26.50
2023-03-07T09:32:16.748Z,26.10
2023-03-07T09:33:19.868Z,30.80
2023-03-07T09:34:22.769Z,27.80
2023-03-07T09:35:25.916Z,25.60
2023-03-07T09:36:28.764Z,29.20
2023-03-07T09:37:31.580Z,28.00
2023-03-07T09:38:34.609Z,25.60
2023-03-07T09:39:37.702Z,27.30
2023-03-07T09:40:40.971Z,26.80
2023-03-07T09:41:58.778Z,28.80
2023-03-07T09:43:15.816Z,27.60
2023-03-07T09:44:31.079Z,30.60
2023-03-07T09:46:06.691Z,30.70
2023-03-07T09:47:34.422Z,30.20
2023-03-07T09:48:50.978Z,33.70
2023-03-07T09:49:55.164Z,29.40
2023-03-07T09:51:12.418Z,26.80
2023-03-07T09:52:19.585Z,26.60
2023-03-07T09:53:36.768Z,32.00
2023-03-07T09:54:50.189Z,29.90
2023-03-07T09:56:05.524Z,27.30
2023-03-07T09:57:17.889Z,29.10
2023-03-07T09:58:24.109Z,32.40
2023-03-07T09:59:38.265Z,30.30
2023-03-07T10:00:46.169Z,32.20
2023-03-07T10:01:52.774Z,32.10
2023-03-07T10:03:23.919Z,31.00
2023-03-07T10:04:38.427Z,31.70
2023-03-07T10:05:53.454Z,32.50
2023-03-07T10:06:59.243Z,32.40
2023-03-07T10:08:02.842Z,34.20
2023-03-07T10:09:14.851Z,36.70
2023-03-07T10:10:22.974Z,34.00
2023-03-07T10:11:52.707Z,36.00
2023-03-07T10:13:28.009Z,33.00
2023-03-07T10:14:36.547Z,38.20
2023-03-07T10:15:51.129Z,33.30
2023-03-07T10:17:24.699Z,34.20
2023-03-07T10:18:42.707Z,33.20
2023-03-07T10:19:56.469Z,34.70
2023-03-07T10:21:37.303Z,38.50
2023-03-07T10:22:55.641Z,37.90
2023-03-07T10:24:27.745Z,37.20
2023-03-07T10:25:40.850Z,40.50
2023-03-07T10:26:43.647Z,40.80
2023-03-07T10:27:48.154Z,36.60
2023-03-07T10:28:51.302Z,37.70
2023-03-07T10:29:56.016Z,38.50
2023-03-07T10:31:10.073Z,42.30
2023-03-07T10:32:21.303Z,40.00
2023-03-07T10:33:25.313Z,40.20
2023-03-07T10:34:32.419Z,39.30
2023-03-07T10:35:43.893Z,39.20
2023-03-07T10:36:57.453Z,40.50
2023-03-07T10:38:24.876Z,37.20
2023-03-07T10:39:38.211Z,39.70
2023-03-07T10:40:54.100Z,40.90
2023-03-07T10:41:57.448Z,40.10
2023-03-07T10:43:00.828Z,39.20
2023-03-07T10:44:03.746Z,38.80
2023-03-07T10:45:07.479Z,39.90
2023-03-07T10:46:27.078Z,41.00
2023-03-07T10:47:30.610Z,41.20
2023-03-07T10:48:37.490Z,41.90
2023-03-07T10:49:45.672Z,42.70
2023-03-07T10:51:24.084Z,40.40
2023-03-07T10:52:40.202Z,38.80
2023-03-07T10:53:43.179Z,38.20
2023-03-07T10:54:46.012Z,41.40
2023-03-07T10:55:48.856Z,39.30
2023-03-07T10:57:02.886Z,41.10
2023-03-07T10:58:20.798Z,39.80
2023-03-07T10:59:25.922Z,38.10
2023-03-07T11:00:29.325Z,38.70
2023-03-07T11:01:33.861Z,39.80
2023-03-07T11:02:44.716Z,38.20
2023-03-07T11:03:58.228Z,37.80
2023-03-07T11:05:03.788Z,35.50
2023-03-07T11:06:07.174Z,39.80
2023-03-07T11:07:34.581Z,38.40
2023-03-07T11:08:37.672Z,41.00
2023-03-07T11:09:47.904Z,35.40
2023-03-07T11:10:50.877Z,43.10
2023-03-07T11:12:05.980Z,35.90
2023-03-07T11:13:17.970Z,37.30
2023-03-07T11:14:23.899Z,35.30
2023-03-07T11:15:27.608Z,36.10
2023-03-07T11:16:30.587Z,36.20
2023-03-07T11:17:44.210Z,34.50
2023-03-07T11:18:47.586Z,35.30
2023-03-07T11:19:54.315Z,33.50
2023-03-07T11:20:59.189Z,34.00
2023-03-07T11:22:06.152Z,32.40
2023-03-07T11:23:31.527Z,33.50
2023-03-07T11:24:39.955Z,33.00
2023-03-07T11:25:43.943Z,35.30
2023-03-07T11:26:47.158Z,37.40
2023-03-07T11:27:53.677Z,32.30
2023-03-07T11:29:12.022Z,32.50
2023-03-07T11:30:22.841Z,31.90
2023-03-07T11:31:38.322Z,35.50
2023-03-07T11:32:51.287Z,32.40
2023-03-07T11:34:36.852Z,33.00
2023-03-07T11:35:52.868Z,34.50
2023-03-07T11:37:03.448Z,32.60
2023-03-07T11:39:42.002Z,36.20
2023-03-07T11:41:12.268Z,36.80
2023-03-07T11:42:24.924Z,34.40
2023-03-07T11:43:59.964Z,36.60
2023-03-07T11:45:33.452Z,32.20
2023-03-07T11:47:13.440Z,37.00
2023-03-07T11:48:22.919Z,33.20
2023-03-07T11:49:53.225Z,30.70
2023-03-07T11:51:00.228Z,32.60
2023-03-07T11:52:12.310Z,33.20
2023-03-07T11:53:15.274Z,35.50
2023-03-07T11:54:40.040Z,35.80
2023-03-07T11:55:53.998Z,34.00
2023-03-07T11:57:03.702Z,35.80
2023-03-07T11:58:20.171Z,34.50
2023-03-07T11:59:48.802Z,34.80
2023-03-07T12:01:04.364Z,36.50
2023-03-07T12:02:27.337Z,35.40
2023-03-07T12:03:55.888Z,37.20
2023-03-07T12:05:20.604Z,35.10
2023-03-07T12:06:52.006Z,33.80
2023-03-07T12:08:19.366Z,37.20
2023-03-07T12:09:54.663Z,35.50
2023-03-07T12:11:18.027Z,34.80
2023-03-07T12:12:35.142Z,39.60
2023-03-07T12:14:00.091Z,39.20
2023-03-07T12:15:25.802Z,36.30
2023-03-07T12:17:01.943Z,36.10
2023-03-07T12:18:26.527Z,36.40
2023-03-07T12:19:42.711Z,38.30
2023-03-07T12:21:07.693Z,37.00
2023-03-07T12:22:27.312Z,36.20
2023-03-07T12:23:39.192Z,37.50
2023-03-07T12:24:56.358Z,37.80
2023-03-07T12:26:03.750Z,36.40
2023-03-07T12:27:30.179Z,35.60
2023-03-07T12:28:42.980Z,35.80
2023-03-07T12:29:57.537Z,34.60
2023-03-07T12:31:25.916Z,33.50
2023-03-07T12:32:32.678Z,33.40
2023-03-07T12:33:53.985Z,35.00
2023-03-07T12:35:40.668Z,35.30
2023-03-07T12:36:52.532Z,36.50
2023-03-07T12:38:08.905Z,33.90
2023-03-07T12:39:26.034Z,34.30
2023-03-07T12:40:45.505Z,35.20
2023-03-07T12:42:03.178Z,36.30
2023-03-07T12:43:11.224Z,37.00
2023-03-07T12:44:29.256Z,37.10
2023-03-07T12:45:54.955Z,36.60
2023-03-07T12:47:11.483Z,36.70
2023-03-07T12:48:29.392Z,36.90
2023-03-07T12:49:49.670Z,33.70
2023-03-07T12:51:04.902Z,31.60
2023-03-07T12:52:20.595Z,33.00
2023-03-07T12:53:46.021Z,32.90
2023-03-07T12:55:21.716Z,34.10
2023-03-07T12:56:54.370Z,33.30
2023-03-07T12:58:15.436Z,32.30
2023-03-07T12:59:21.906Z,32.60
2023-03-07T13:00:25.241Z,31.70
2023-03-07T13:01:32.778Z,31.10
2023-03-07T13:02:44.396Z,29.70
2023-03-07T13:04:25.393Z,29.40
2023-03-07T13:06:33.586Z,30.90
2023-03-07T13:07:36.448Z,27.60
2023-03-07T13:08:40.672Z,27.80
2023-03-07T13:09:46.393Z,26.20
2023-03-07T13:10:49.835Z,27.90
2023-03-07T13:12:08.206Z,26.70
2023-03-07T13:13:43.460Z,26.50
2023-03-07T13:15:07.650Z,26.60
2023-03-07T13:16:40.635Z,26.20
2023-03-07T13:17:43.563Z,24.50
2023-03-07T13:18:46.410Z,22.10
2023-03-07T13:19:53.481Z,24.20
2023-03-07T13:21:11.650Z,24.00
2023-03-07T13:22:14.599Z,21.10
2023-03-07T13:23:27.113Z,21.50
2023-03-07T13:24:40.285Z,23.40
2023-03-07T13:26:05.443Z,22.10
2023-03-07T13:27:17.133Z,19.30
2023-03-07T13:28:39.747Z,19.80
2023-03-07T13:30:07.666Z,22.00
2023-03-07T13:31:16.654Z,18.70
2023-03-07T13:32:51.000Z,21.20
2023-03-07T13:33:54.211Z,19.50
2023-03-07T13:34:57.046Z,18.30
2023-03-07T13:36:00.857Z,20.70
2023-03-07T13:37:48.201Z,18.60
2023-03-07T13:38:51.202Z,18.10
2023-03-07T13:40:05.328Z,17.70
2023-03-07T13:41:11.263Z,18.20
2023-03-07T13:42:46.835Z,17.50
2023-03-07T13:43:52.535Z,16.70
2023-03-07T13:44:55.608Z,17.90
2023-03-07T13:46:03.493Z,15.50
2023-03-07T13:47:42.440Z,17.10
2023-03-07T13:48:59.961Z,16.30
2023-03-07T13:50:03.241Z,17.70
2023-03-07T13:51:09.157Z,16.10
2023-03-07T13:52:37.570Z,15.30
2023-03-07T13:53:46.480Z,15.70
2023-03-07T13:54:51.024Z,14.20
2023-03-07T13:56:00.552Z,16.00
2023-03-07T13:57:04.336Z,14.40
2023-03-07T13:58:19.836Z,14.70
2023-03-07T13:59:28.295Z,15.80
2023-03-07T14:00:34.339Z,13.90
2023-03-07T14:01:40.846Z,17.10
2023-03-07T14:02:45.603Z,14.50
2023-03-07T14:03:55.923Z,15.80
2023-03-07T14:05:03.168Z,14.60
2023-03-07T14:06:36.402Z,14.80
2023-03-07T14:07:42.362Z,13.70
2023-03-07T14:08:46.689Z,14.50
2023-03-07T14:09:56.704Z,13.30
2023-03-07T14:11:00.661Z,14.60
2023-03-07T14:12:11.760Z,15.60
2023-03-07T14:13:32.977Z,17.00
2023-03-07T14:14:43.489Z,14.80
2023-03-07T14:17:17.717Z,14.30
2023-03-07T14:18:26.641Z,14.90
2023-03-07T14:19:38.745Z,13.80
2023-03-07T14:21:07.045Z,14.70
2023-03-07T14:22:31.753Z,16.10
2023-03-07T14:23:52.898Z,14.50
2023-03-07T14:25:16.038Z,14.60
2023-03-07T14:26:33.578Z,13.90
2023-03-07T14:27:52.241Z,15.80
2023-03-07T14:29:00.312Z,14.00
2023-03-07T14:30:16.001Z,14.40
2023-03-07T14:31:32.021Z,15.30
2023-03-07T14:32:35.517Z,12.80
2023-03-07T14:33:39.653Z,12.80
2023-03-07T14:34:49.181Z,14.10